createdAt,value
2018-03-23T09:18:04.156Z,6548
2018-03-23T09:18:29.698Z,7196
2018-03-23T09:18:55.122Z,7680
2018-03-23T09:19:20.610Z,7724
2018-03-23T09:19:46.118Z,7568
2018-03-23T09:20:11.592Z,7344
2018-03-23T09:20:37.129Z,7272
2018-03-23T09:21:02.537Z,7876
2018-03-23T09:21:28.033Z,8636
2018-03-23T09:21:53.549Z,9136
2018-03-23T09:22:19.161Z,9280
2018-03-23T09:22:44.629Z,8960
2018-03-23T09:23:10.182Z,8348
2018-03-23T09:23:35.722Z,7724
2018-03-23T09:24:01.230Z,7196
2018-03-23T09:24:26.766Z,7072
2018-03-23T09:24:52.186Z,7104
2018-03-23T09:25:17.672Z,7188
2018-03-23T09:25:43.168Z,7336
2018-03-23T09:26:08.621Z,7152
2018-03-23T09:26:34.180Z,6676
2018-03-23T09:26:59.646Z,6212
2018-03-23T09:27:25.245Z,5760
2018-03-23T09:27:50.708Z,5312
2018-03-23T09:28:16.226Z,5068
2018-03-23T09:28:41.755Z,5116
2018-03-23T09:29:07.241Z,5560
2018-03-23T09:29:32.759Z,6076
2018-03-23T09:29:58.241Z,6364
2018-03-23T09:30:23.752Z,6788
2018-03-23T09:30:49.270Z,7148
2018-03-23T09:31:14.815Z,7416
2018-03-23T09:31:40.203Z,7588
2018-03-23T09:32:05.856Z,7748
2018-03-23T09:32:31.189Z,7980
2018-03-23T09:32:56.701Z,8320
2018-03-23T09:33:22.198Z,8584
2018-03-23T09:33:47.802Z,8628
2018-03-23T09:34:13.199Z,8700
2018-03-23T09:34:38.620Z,8632
2018-03-23T09:35:04.118Z,8040
2018-03-23T09:35:29.566Z,7796
2018-03-23T09:35:55.086Z,8020
2018-03-23T09:36:20.578Z,8028
2018-03-23T09:36:45.986Z,8204
2018-03-23T09:37:11.464Z,8720
2018-03-23T09:37:37.090Z,9392
2018-03-23T09:38:02.596Z,10008
2018-03-23T09:38:28.113Z,10384
2018-03-23T09:38:53.598Z,10632
2018-03-23T09:39:19.072Z,10424
2018-03-23T09:39:44.549Z,9944
2018-03-23T09:40:10.046Z,9204
2018-03-23T09:40:35.507Z,8900
2018-03-23T09:41:00.946Z,9192
2018-03-23T09:41:26.525Z,9796
2018-03-23T09:41:51.942Z,9568
2018-03-23T09:42:17.414Z,8660
2018-03-23T09:42:42.867Z,7872
2018-03-23T09:43:08.456Z,7404
2018-03-23T09:43:33.993Z,7312
2018-03-23T09:43:59.450Z,6988
2018-03-23T09:44:24.941Z,6448
2018-03-23T09:44:50.367Z,6056
2018-03-23T09:45:15.923Z,6260
2018-03-23T09:45:41.424Z,6860
2018-03-23T09:46:06.906Z,7760
2018-03-23T09:46:32.405Z,7816
2018-03-23T09:46:57.898Z,7092
2018-03-23T09:47:23.317Z,6236
2018-03-23T09:47:48.812Z,6064
2018-03-23T09:48:14.306Z,6260
2018-03-23T09:48:39.868Z,6236
2018-03-23T09:49:05.298Z,6016
2018-03-23T09:49:30.756Z,6756
2018-03-23T09:49:56.284Z,7116
2018-03-23T09:50:21.760Z,7308
2018-03-23T09:50:47.187Z,7152
2018-03-23T09:51:12.738Z,6696
2018-03-23T09:51:38.247Z,6156
2018-03-23T09:52:03.723Z,5596
2018-03-23T09:52:29.232Z,4984
2018-03-23T09:52:54.746Z,4456
2018-03-23T09:53:20.141Z,4168
2018-03-23T09:53:45.634Z,4160
2018-03-23T09:54:11.126Z,4216
2018-03-23T09:54:36.616Z,4296
2018-03-23T09:55:02.152Z,4408
2018-03-23T09:55:27.640Z,4480
2018-03-23T09:55:53.139Z,4480
2018-03-23T09:56:18.647Z,4360
2018-03-23T09:56:44.176Z,4412
2018-03-23T09:57:09.756Z,4524
2018-03-23T09:57:35.201Z,4444
2018-03-23T09:58:00.633Z,4444
2018-03-23T09:58:26.136Z,4536
2018-03-23T09:58:51.617Z,4716
2018-03-23T09:59:17.039Z,4724
2018-03-23T09:59:42.579Z,4696
2018-03-23T10:00:08.072Z,4916
2018-03-23T10:00:33.599Z,5020
2018-03-23T10:00:59.078Z,4968
2018-03-23T10:01:24.519Z,4776
2018-03-23T10:01:49.994Z,4404
2018-03-23T10:02:15.478Z,4124
2018-03-23T10:03:39.469Z,5728
2018-03-23T10:04:05.032Z,5188
2018-03-23T10:04:30.430Z,4992
2018-03-23T10:04:55.987Z,5204
2018-03-23T10:05:21.533Z,5644
2018-03-23T10:05:46.990Z,6180
2018-03-23T10:06:12.452Z,6876
2018-03-23T10:06:37.921Z,7368
2018-03-23T10:07:03.453Z,8004
2018-03-23T10:07:28.936Z,8736
2018-03-23T10:07:54.460Z,9320
2018-03-23T10:08:19.971Z,9892
2018-03-23T10:08:45.487Z,10076
2018-03-23T10:09:11.034Z,9672
2018-03-23T10:09:36.532Z,8828
2018-03-23T10:10:02.053Z,8616
2018-03-23T10:10:27.513Z,9164
2018-03-23T10:11:41.296Z,10904
2018-03-23T10:12:06.801Z,11452
2018-03-23T10:12:32.279Z,11888
2018-03-23T10:12:57.722Z,12300
2018-03-23T10:13:23.216Z,12452
2018-03-23T10:13:48.714Z,12624
2018-03-23T10:14:14.184Z,12748
2018-03-23T10:14:39.668Z,12948
2018-03-23T10:15:05.135Z,12936
2018-03-23T10:15:30.585Z,12500
2018-03-23T10:15:56.024Z,11564
2018-03-23T10:16:21.487Z,10444
2018-03-23T10:16:46.967Z,9112
2018-03-23T10:17:12.466Z,8308
2018-03-23T10:17:37.946Z,8304
2018-03-23T10:18:03.465Z,8460
2018-03-23T10:18:28.979Z,8288
2018-03-23T10:18:54.418Z,8016
2018-03-23T10:19:19.947Z,7668
2018-03-23T10:19:45.448Z,7300
2018-03-23T10:20:10.929Z,6876
2018-03-23T10:20:36.455Z,6444
2018-03-23T10:21:01.984Z,6196
2018-03-23T10:21:27.396Z,6020
2018-03-23T10:21:52.877Z,5796
2018-03-23T10:22:18.377Z,5396
2018-03-23T10:22:43.859Z,5268
2018-03-23T10:23:09.316Z,5232
2018-03-23T10:23:34.823Z,5368
2018-03-23T10:24:00.351Z,5772
2018-03-23T10:24:25.862Z,6232
2018-03-23T10:24:51.306Z,7020
2018-03-23T10:25:16.756Z,8000
2018-03-23T10:25:42.325Z,8868
2018-03-23T10:26:07.818Z,8936
2018-03-23T10:26:33.324Z,8432
2018-03-23T10:26:58.819Z,7704
2018-03-23T10:27:24.362Z,6996
2018-03-23T10:27:49.934Z,6648
2018-03-23T10:28:15.403Z,6576
2018-03-23T10:28:41.045Z,6584
2018-03-23T10:29:06.460Z,6772
2018-03-23T10:29:31.955Z,6980
2018-03-23T10:29:57.524Z,7060
2018-03-23T10:30:23.020Z,7352
2018-03-23T10:30:48.548Z,8124
2018-03-23T10:31:14.061Z,9460
2018-03-23T10:31:39.512Z,10496
2018-03-23T10:32:04.989Z,11252
2018-03-23T10:32:30.492Z,11768
2018-03-23T10:32:56.020Z,11892
2018-03-23T10:33:21.508Z,11784
2018-03-23T10:33:47.039Z,11844
2018-03-23T10:34:12.562Z,11928
2018-03-23T10:34:38.044Z,11828
2018-03-23T10:35:03.568Z,11336
2018-03-23T10:35:29.032Z,10748
2018-03-23T10:35:54.580Z,10128
2018-03-23T10:36:20.049Z,9940
2018-03-23T10:36:45.680Z,10284
2018-03-23T10:37:11.176Z,10824
2018-03-23T10:37:36.569Z,11160
2018-03-23T10:38:02.064Z,11272
2018-03-23T10:38:27.601Z,11204
2018-03-23T10:38:53.141Z,11084
2018-03-23T10:39:18.654Z,11084
2018-03-23T10:39:44.157Z,11164
2018-03-23T10:40:09.642Z,11128
2018-03-23T10:40:35.240Z,11152
2018-03-23T10:41:00.708Z,11116
2018-03-23T10:41:26.215Z,10888
2018-03-23T10:41:51.700Z,10864
2018-03-23T10:42:17.234Z,11068
2018-03-23T10:42:42.731Z,11276
2018-03-23T10:43:08.224Z,11120
2018-03-23T10:43:33.745Z,10628
2018-03-23T10:43:59.259Z,10028
2018-03-23T10:44:24.758Z,9880
2018-03-23T10:44:50.254Z,9844
2018-03-23T10:45:15.711Z,9516
2018-03-23T10:45:41.223Z,9196
2018-03-23T10:46:06.765Z,8680
2018-03-23T10:46:32.341Z,8128
2018-03-23T10:46:57.806Z,7732
2018-03-23T10:47:23.263Z,7396
2018-03-23T10:47:48.745Z,6996
2018-03-23T10:48:14.237Z,6632
2018-03-23T10:48:39.718Z,6164
2018-03-23T10:49:05.199Z,6064
2018-03-23T10:49:30.713Z,5936
2018-03-23T10:49:56.240Z,5868
2018-03-23T10:50:21.755Z,5944
2018-03-23T10:50:47.292Z,6036
2018-03-23T10:51:12.781Z,6108
2018-03-23T10:52:21.514Z,5784
2018-03-23T10:52:47.016Z,5876
2018-03-23T10:53:12.511Z,6244
2018-03-23T10:53:38.006Z,6428
2018-03-23T10:54:03.529Z,6432
2018-03-23T10:54:29.020Z,6228
2018-03-23T10:54:54.607Z,6012
2018-03-23T10:55:20.014Z,6140
2018-03-23T10:55:45.532Z,7268
2018-03-23T10:56:11.052Z,8632
2018-03-23T10:56:36.577Z,9444
2018-03-23T10:57:02.102Z,9840
2018-03-23T10:57:27.634Z,10384
2018-03-23T10:57:53.151Z,10968
2018-03-23T10:58:18.626Z,11740
2018-03-23T10:58:44.135Z,12140
2018-03-23T10:59:09.618Z,12184
2018-03-23T10:59:35.144Z,11740
2018-03-23T11:00:00.701Z,11240
2018-03-23T11:00:26.184Z,11028
2018-03-23T11:00:51.692Z,10720
2018-03-23T11:01:17.181Z,10916
2018-03-23T11:01:42.673Z,11684
2018-03-23T11:02:08.246Z,12348
2018-03-23T11:02:33.722Z,12800
2018-03-23T11:02:59.260Z,13076
2018-03-23T11:03:24.745Z,13180
2018-03-23T11:03:50.268Z,13092
2018-03-23T11:04:15.782Z,12748
2018-03-23T11:04:41.244Z,12596
2018-03-23T11:05:06.875Z,12636
2018-03-23T11:05:32.343Z,12692
2018-03-23T11:05:57.841Z,12716
2018-03-23T11:06:23.385Z,12572
2018-03-23T11:07:47.400Z,11840
2018-03-23T11:08:12.923Z,11756
2018-03-23T11:08:38.404Z,11596
2018-03-23T11:09:04.001Z,11456
2018-03-23T11:09:29.410Z,11288
2018-03-23T11:09:54.920Z,11140
2018-03-23T11:10:20.512Z,11056
2018-03-23T11:10:46.005Z,11088
2018-03-23T11:11:11.494Z,11148
2018-03-23T11:11:37.022Z,11332
2018-03-23T11:12:02.625Z,11452
2018-03-23T11:12:28.086Z,11540
2018-03-23T11:12:53.613Z,11528
2018-03-23T11:13:19.115Z,11204
2018-03-23T11:13:44.593Z,11160
2018-03-23T11:14:10.089Z,11612
2018-03-23T11:14:35.596Z,11816
2018-03-23T11:15:01.105Z,11372
2018-03-23T11:15:26.599Z,10832
2018-03-23T11:15:52.106Z,10588
2018-03-23T11:16:17.577Z,10708
2018-03-23T11:16:43.147Z,11000
2018-03-23T11:17:08.577Z,11860
2018-03-23T11:17:34.049Z,12204
2018-03-23T11:17:59.543Z,12084
2018-03-23T11:18:25.054Z,11824
2018-03-23T11:18:50.483Z,11600
2018-03-23T11:19:15.948Z,11468
2018-03-23T11:19:41.474Z,11480
2018-03-23T11:20:06.968Z,11652
2018-03-23T11:20:32.478Z,11896
2018-03-23T11:20:57.979Z,12084
2018-03-23T11:21:23.517Z,12068
2018-03-23T11:21:49.082Z,12296
2018-03-23T11:22:14.642Z,12328
2018-03-23T11:22:40.131Z,12192
2018-03-23T11:23:05.725Z,12004
2018-03-23T11:23:31.235Z,11860
2018-03-23T11:23:56.711Z,11896
2018-03-23T11:24:22.447Z,11828
2018-03-23T11:24:47.903Z,11604
2018-03-23T11:25:13.431Z,11588
2018-03-23T11:25:38.897Z,11436
2018-03-23T11:26:04.394Z,11244
2018-03-23T11:26:29.889Z,11204
2018-03-23T11:26:55.394Z,11172
2018-03-23T11:27:20.907Z,11188
2018-03-23T11:27:46.436Z,11172
2018-03-23T11:28:11.865Z,11452
2018-03-23T11:28:37.374Z,11924
2018-03-23T11:29:02.895Z,12236
2018-03-23T11:29:28.373Z,12600
2018-03-23T11:29:53.867Z,12848
2018-03-23T11:30:19.404Z,12872
2018-03-23T11:30:44.858Z,12732
2018-03-23T11:31:10.410Z,12480
2018-03-23T11:31:35.890Z,12288
2018-03-23T11:32:01.377Z,12048
2018-03-23T11:32:26.902Z,11956
2018-03-23T11:32:52.382Z,11828
2018-03-23T11:33:17.926Z,11544
2018-03-23T11:33:43.434Z,11348
2018-03-23T11:34:08.961Z,11408
2018-03-23T11:34:34.402Z,11556
2018-03-23T11:34:59.913Z,11708
2018-03-23T11:35:25.416Z,11716
2018-03-23T11:35:50.956Z,11476
2018-03-23T11:36:16.462Z,11120
2018-03-23T11:36:41.905Z,10608
2018-03-23T11:37:07.521Z,10312
2018-03-23T11:37:32.913Z,10392
2018-03-23T11:37:58.406Z,10668
2018-03-23T11:38:23.868Z,10744
2018-03-23T11:38:49.366Z,10108
2018-03-23T11:39:14.872Z,9312
2018-03-23T11:39:40.340Z,8600
2018-03-23T11:40:05.798Z,8084
2018-03-23T11:40:31.322Z,7736
2018-03-23T11:40:56.795Z,7332
2018-03-23T11:41:22.272Z,7296
2018-03-23T11:41:47.802Z,7424
2018-03-23T11:42:13.284Z,7516
2018-03-23T11:42:38.813Z,7500
2018-03-23T11:43:04.326Z,7404
2018-03-23T11:43:29.868Z,7316
2018-03-23T11:43:55.352Z,7232
2018-03-23T11:44:20.844Z,7316
2018-03-23T11:44:46.317Z,7368
2018-03-23T11:45:11.768Z,7548
2018-03-23T11:45:37.369Z,7776
2018-03-23T11:46:02.814Z,7792
2018-03-23T11:46:28.285Z,7672
2018-03-23T11:46:53.810Z,7468
2018-03-23T11:47:19.365Z,7444
2018-03-23T11:48:38.280Z,7972
2018-03-23T11:49:03.750Z,8420
2018-03-23T11:49:29.251Z,8872
2018-03-23T11:50:53.300Z,9368
2018-03-23T11:51:19.263Z,9468
2018-03-23T11:52:33.066Z,9532
2018-03-23T11:52:58.587Z,9332
2018-03-23T11:53:24.110Z,9220
2018-03-23T11:53:49.573Z,9200
2018-03-23T11:54:15.049Z,9056
2018-03-23T11:54:40.574Z,8952
2018-03-23T11:55:06.069Z,8752
2018-03-23T11:55:32.424Z,8468
2018-03-23T11:55:57.900Z,7936
2018-03-23T11:56:23.594Z,7208
2018-03-23T11:56:49.123Z,6548
2018-03-23T11:57:57.890Z,7668
2018-03-23T11:58:23.386Z,8328
2018-03-23T11:58:48.903Z,8352
2018-03-23T11:59:14.661Z,7892
2018-03-23T11:59:40.174Z,7312
2018-03-23T12:00:06.205Z,7324
2018-03-23T12:00:31.466Z,7944
2018-03-23T12:00:56.979Z,8800
2018-03-23T12:01:22.491Z,9344
2018-03-23T12:01:47.978Z,9044
2018-03-23T12:02:13.500Z,8352
2018-03-23T12:02:38.963Z,7720
2018-03-23T12:03:04.472Z,7560
2018-03-23T12:03:29.964Z,7824
2018-03-23T12:04:43.966Z,8804
2018-03-23T12:05:09.429Z,8472
2018-03-23T12:05:34.910Z,8352
2018-03-23T12:06:00.441Z,8748
2018-03-23T12:06:25.977Z,9544
2018-03-23T12:06:51.444Z,10272
2018-03-23T12:07:16.980Z,10776
2018-03-23T12:07:42.454Z,10928
2018-03-23T12:08:07.979Z,10904
2018-03-23T12:08:33.479Z,10772
2018-03-23T12:08:58.964Z,10484
2018-03-23T12:09:24.428Z,10188
2018-03-23T12:09:49.927Z,10020
2018-03-23T12:10:15.395Z,9968
2018-03-23T12:10:40.896Z,9932
2018-03-23T12:11:06.367Z,9980
2018-03-23T12:11:31.868Z,10116
2018-03-23T12:11:57.347Z,10184
2018-03-23T12:12:22.864Z,10080
2018-03-23T12:12:48.349Z,9956
2018-03-23T12:13:13.820Z,9784
2018-03-23T12:13:39.305Z,9700
2018-03-23T12:14:04.795Z,9628
2018-03-23T12:14:30.328Z,9516
2018-03-23T12:14:55.772Z,9436
2018-03-23T12:15:21.257Z,9476
2018-03-23T12:15:46.800Z,9556
2018-03-23T12:16:12.271Z,9648
2018-03-23T12:16:37.731Z,9696
2018-03-23T12:17:03.245Z,9832
2018-03-23T12:17:28.719Z,9976
2018-03-23T12:17:54.199Z,10072
2018-03-23T12:18:19.698Z,10124
2018-03-23T12:18:45.263Z,10192
2018-03-23T12:19:10.808Z,10264
2018-03-23T12:19:36.364Z,10236
2018-03-23T12:20:01.864Z,10220
2018-03-23T12:20:27.323Z,10068
2018-03-23T12:20:52.830Z,9896
2018-03-23T12:21:18.307Z,9716
2018-03-23T12:21:43.834Z,9584
2018-03-23T12:22:09.363Z,9572
2018-03-23T12:22:34.878Z,9628
2018-03-23T12:23:00.327Z,9560
2018-03-23T12:23:25.897Z,9284
2018-03-23T12:23:51.337Z,9188
2018-03-23T12:24:16.865Z,9436
2018-03-23T12:24:42.400Z,9648
2018-03-23T12:25:07.861Z,9768
2018-03-23T12:25:33.404Z,9752
2018-03-23T12:25:58.890Z,9704
2018-03-23T12:26:24.482Z,9628
2018-03-23T12:26:49.864Z,9336
2018-03-23T12:27:15.387Z,8852
2018-03-23T12:27:40.886Z,8532
2018-03-23T12:28:06.380Z,8444
2018-03-23T12:28:31.893Z,8372
2018-03-23T12:28:57.396Z,8032
2018-03-23T12:29:22.922Z,7640
2018-03-23T12:29:48.378Z,7464
2018-03-23T12:30:13.891Z,7468
2018-03-23T12:30:39.410Z,7356
2018-03-23T12:31:04.906Z,7052
2018-03-23T12:31:30.378Z,6700
2018-03-23T12:31:55.982Z,6508
2018-03-23T12:32:21.465Z,6368
2018-03-23T12:32:46.972Z,6216
2018-03-23T12:33:12.468Z,6148
2018-03-23T12:33:37.993Z,6236
2018-03-23T12:34:03.557Z,6480
2018-03-23T12:34:29.050Z,6704
2018-03-23T12:34:54.560Z,6772
2018-03-23T12:35:20.043Z,6772
2018-03-23T12:35:45.549Z,6824
2018-03-23T12:36:11.037Z,6756
2018-03-23T12:36:36.528Z,6372
2018-03-23T12:37:02.026Z,5856
2018-03-23T12:37:27.551Z,5368
2018-03-23T12:37:53.065Z,4976
2018-03-23T12:38:18.573Z,5048
2018-03-23T12:38:44.083Z,5372
2018-03-23T12:39:09.577Z,5572
2018-03-23T12:39:35.004Z,5536
2018-03-23T12:40:00.528Z,5460
2018-03-23T12:40:26.018Z,5616
2018-03-23T12:40:51.558Z,5900
2018-03-23T12:41:17.029Z,6072
2018-03-23T12:41:42.655Z,6216
2018-03-23T12:42:08.173Z,6216
2018-03-23T12:42:33.663Z,6092
2018-03-23T12:42:59.118Z,5832
2018-03-23T12:43:24.617Z,5600
2018-03-23T12:43:50.131Z,5360
2018-03-23T12:44:15.620Z,5140
2018-03-23T12:44:41.140Z,5172
2018-03-23T12:45:06.613Z,5580
2018-03-23T12:45:32.187Z,6080
2018-03-23T12:45:57.642Z,6204
2018-03-23T12:47:11.474Z,6204
2018-03-23T12:47:37.145Z,6204
2018-03-23T12:48:02.703Z,6224
2018-03-23T12:48:28.251Z,6416
2018-03-23T12:48:53.778Z,6564
2018-03-23T12:49:19.230Z,6504
2018-03-23T12:49:44.717Z,6464
2018-03-23T12:50:10.190Z,6612
2018-03-23T12:50:36.023Z,6932
2018-03-23T12:51:01.643Z,7300
2018-03-23T12:51:27.087Z,7540
2018-03-23T12:51:52.630Z,7516
2018-03-23T12:52:18.214Z,7232
2018-03-23T12:52:43.726Z,6888
2018-03-23T12:53:09.296Z,6392
2018-03-23T12:53:34.963Z,6004
2018-03-23T12:54:00.511Z,5736
2018-03-23T12:54:26.007Z,5696
2018-03-23T12:54:51.508Z,5672
2018-03-23T12:55:17.983Z,5848
2018-03-23T12:55:43.492Z,6040
2018-03-23T12:56:09.044Z,6012
2018-03-23T12:56:34.550Z,5816
2018-03-23T12:57:00.037Z,5548
2018-03-23T12:57:25.522Z,5240
2018-03-23T12:57:51.071Z,4924
2018-03-23T12:58:16.590Z,4612
2018-03-23T12:58:42.150Z,4516
2018-03-23T12:59:07.555Z,4724
2018-03-23T12:59:33.104Z,5388
2018-03-23T12:59:58.611Z,6064
2018-03-23T13:00:24.144Z,6440
2018-03-23T13:00:49.602Z,6588
2018-03-23T13:01:15.132Z,6564
2018-03-23T13:01:40.602Z,6544
2018-03-23T13:02:06.098Z,6432
2018-03-23T13:02:31.579Z,6224
2018-03-23T13:02:57.054Z,5960
2018-03-23T13:03:22.635Z,5684
2018-03-23T13:03:48.173Z,5388
2018-03-23T13:04:13.687Z,5088
2018-03-23T13:04:39.213Z,4772
2018-03-23T13:05:04.671Z,4460
2018-03-23T13:05:30.160Z,4180
2018-03-23T13:05:55.666Z,3952
2018-03-23T13:06:21.164Z,3772
2018-03-23T13:06:46.687Z,3600
2018-03-23T13:07:12.145Z,3464
2018-03-23T13:07:37.632Z,3356
2018-03-23T13:08:03.166Z,3312
2018-03-23T13:08:28.670Z,3300
2018-03-23T13:08:54.174Z,3268
2018-03-23T13:09:19.659Z,3268
2018-03-23T13:09:45.174Z,3308
2018-03-23T13:10:10.643Z,3340
2018-03-23T13:10:36.098Z,3336
2018-03-23T13:11:01.596Z,3280
2018-03-23T13:11:27.088Z,3184
2018-03-23T13:11:52.582Z,3064
2018-03-23T13:12:18.080Z,2944
2018-03-23T13:12:43.551Z,2840
2018-03-23T13:13:09.047Z,2752
2018-03-23T13:13:34.582Z,2728
2018-03-23T13:14:00.077Z,2748
2018-03-23T13:14:25.602Z,2796
2018-03-23T13:14:51.150Z,2820
2018-03-23T13:15:16.554Z,2816
2018-03-23T13:15:42.093Z,2792
2018-03-23T13:16:07.566Z,2760
2018-03-23T13:16:33.092Z,2740
2018-03-23T13:16:58.582Z,2736
2018-03-23T13:17:24.122Z,2724
2018-03-23T13:17:49.595Z,2688
2018-03-23T13:18:15.095Z,2648
2018-03-23T13:18:40.608Z,2588
2018-03-23T13:19:06.123Z,2532
2018-03-23T13:19:31.588Z,2536
2018-03-23T13:19:57.060Z,2640
2018-03-23T13:20:22.538Z,2804
2018-03-23T13:20:48.009Z,2956
2018-03-23T13:21:13.512Z,3012
2018-03-23T13:21:38.989Z,3060
2018-03-23T13:22:04.522Z,3216
2018-03-23T13:22:30.003Z,3332
2018-03-23T13:22:55.549Z,3364
2018-03-23T13:23:21.050Z,3412
2018-03-23T13:23:46.541Z,3416
2018-03-23T13:24:12.082Z,3392
2018-03-23T13:24:37.577Z,3356
2018-03-23T13:25:03.038Z,3320
2018-03-23T13:25:28.667Z,3256
2018-03-23T13:25:54.165Z,3184
2018-03-23T13:26:19.654Z,3148
2018-03-23T13:26:45.144Z,3312
2018-03-23T13:27:10.648Z,3660
2018-03-23T13:27:36.129Z,4164
2018-03-23T13:28:01.739Z,4732
2018-03-23T13:28:27.147Z,5176
2018-03-23T13:28:52.638Z,5404
2018-03-23T13:29:18.196Z,5500
2018-03-23T13:29:43.629Z,5504
2018-03-23T13:30:09.127Z,5528
2018-03-23T13:30:34.686Z,5620
2018-03-23T13:31:00.209Z,5760
2018-03-23T13:31:25.711Z,5812
2018-03-23T13:31:51.185Z,5732
2018-03-23T13:32:16.685Z,5652
2018-03-23T13:32:42.192Z,5588
2018-03-23T13:33:07.689Z,5376
2018-03-23T13:33:33.199Z,5096
2018-03-23T13:34:37.041Z,4612
2018-03-23T13:35:02.427Z,4512
2018-03-23T13:35:27.924Z,4628
2018-03-23T13:35:53.392Z,4824
2018-03-23T13:36:18.908Z,4924
2018-03-23T13:36:44.391Z,4860
2018-03-23T13:37:09.885Z,4908
2018-03-23T13:37:35.406Z,4992
2018-03-23T13:38:00.930Z,5112
2018-03-23T13:38:26.427Z,5084
2018-03-23T13:38:51.930Z,4940
2018-03-23T13:39:17.455Z,4672
2018-03-23T13:39:42.894Z,4432
2018-03-23T13:40:08.349Z,4488
2018-03-23T13:40:33.831Z,4716
2018-03-23T13:40:59.314Z,4752
2018-03-23T13:41:24.830Z,4672
2018-03-23T13:41:50.284Z,4564
2018-03-23T13:42:15.747Z,4420
2018-03-23T13:42:41.234Z,4268
2018-03-23T13:43:06.811Z,4212
2018-03-23T13:44:25.682Z,3768
2018-03-23T13:44:51.169Z,3656
2018-03-23T13:45:16.666Z,3720
2018-03-23T13:45:42.089Z,3980
2018-03-23T13:46:07.549Z,4132
2018-03-23T13:46:33.016Z,4184
2018-03-23T13:46:58.488Z,4252
2018-03-23T13:47:24.007Z,4356
2018-03-23T13:47:49.499Z,4452
2018-03-23T13:48:15.014Z,4504
2018-03-23T13:48:40.459Z,4492
2018-03-23T13:49:05.954Z,4456
2018-03-23T13:49:31.438Z,4388
2018-03-23T13:49:56.961Z,4288
2018-03-23T13:50:22.496Z,4232
2018-03-23T13:50:47.910Z,4216
2018-03-23T13:51:13.333Z,4128
2018-03-23T13:51:38.792Z,3944
2018-03-23T13:52:04.294Z,3920
2018-03-23T13:52:29.750Z,4096
2018-03-23T13:52:55.220Z,4496
2018-03-23T13:53:20.729Z,4868
2018-03-23T13:53:46.209Z,5112
2018-03-23T13:54:11.733Z,5208
2018-03-23T13:54:37.227Z,5204
2018-03-23T13:55:02.794Z,5144
2018-03-23T13:55:28.242Z,5068
2018-03-23T13:55:53.682Z,4996
2018-03-23T13:56:19.146Z,4896
2018-03-23T13:56:44.645Z,4740
2018-03-23T13:57:10.155Z,4648
2018-03-23T13:57:35.646Z,4656
2018-03-23T13:58:01.176Z,4688
2018-03-23T13:58:26.630Z,4692
2018-03-23T13:58:52.131Z,4656
2018-03-23T13:59:17.588Z,4552
2018-03-23T13:59:43.170Z,4436
2018-03-23T14:00:08.739Z,4352
2018-03-23T14:00:34.121Z,4264
2018-03-23T14:00:59.584Z,4180
2018-03-23T14:01:25.039Z,4132
2018-03-23T14:01:50.578Z,4112
2018-03-23T14:02:16.043Z,4112
2018-03-23T14:02:41.556Z,4132
2018-03-23T14:03:07.047Z,4116
2018-03-23T14:03:32.534Z,4096
2018-03-23T14:03:58.027Z,4016
2018-03-23T14:04:23.540Z,3992
2018-03-23T14:04:48.996Z,4016
2018-03-23T14:05:14.501Z,3988
2018-03-23T14:05:39.959Z,3920
2018-03-23T14:06:05.431Z,3880
2018-03-23T14:06:30.909Z,3852
2018-03-23T14:06:56.364Z,3848
2018-03-23T14:07:21.857Z,3876
2018-03-23T14:07:47.329Z,3888
2018-03-23T14:08:12.806Z,3916
2018-03-23T14:08:38.294Z,3916
2018-03-23T14:09:03.792Z,3888
2018-03-23T14:09:29.295Z,3772
2018-03-23T14:09:54.759Z,3644
2018-03-23T14:10:20.312Z,3584
2018-03-23T14:10:45.816Z,3576
2018-03-23T14:11:11.261Z,3532
2018-03-23T14:11:36.850Z,3464
2018-03-23T14:12:02.300Z,3408
2018-03-23T14:13:26.385Z,3136
2018-03-23T14:13:51.862Z,3108
2018-03-23T14:14:17.336Z,3132
2018-03-23T14:14:42.817Z,3140
2018-03-23T14:15:08.312Z,3164
2018-03-23T14:15:33.789Z,3104
2018-03-23T14:15:59.258Z,2992
2018-03-23T14:16:24.809Z,2916
2018-03-23T14:16:50.294Z,2960
2018-03-23T14:17:15.749Z,3072
2018-03-23T14:17:41.336Z,3144
2018-03-23T14:18:06.762Z,3188
2018-03-23T14:18:32.331Z,3192
2018-03-23T14:18:57.774Z,3148
2018-03-23T14:19:23.331Z,3064
2018-03-23T14:19:48.850Z,2944
2018-03-23T14:20:14.331Z,2812
2018-03-23T14:20:39.832Z,2836
2018-03-23T14:21:05.265Z,2976
2018-03-23T14:21:31.059Z,3152
2018-03-23T14:21:56.529Z,3212
2018-03-23T14:22:22.091Z,3104
2018-03-23T14:22:47.456Z,2896
2018-03-23T14:23:12.914Z,2680
2018-03-23T14:23:38.425Z,2560
2018-03-23T14:24:03.913Z,2560
2018-03-23T14:24:29.355Z,2712
2018-03-23T14:24:54.820Z,2772
2018-03-23T14:25:20.300Z,2728
2018-03-23T14:25:45.911Z,2616
2018-03-23T14:26:11.413Z,2584
2018-03-23T14:26:36.896Z,2680
2018-03-23T14:27:02.439Z,2692
2018-03-23T14:27:27.848Z,2576
2018-03-23T14:27:53.611Z,2424
2018-03-23T14:28:19.129Z,2308
2018-03-23T14:28:44.662Z,2296
2018-03-23T14:29:10.104Z,2448
2018-03-23T14:29:35.659Z,2712
2018-03-23T14:30:54.550Z,2824
2018-03-23T14:31:20.185Z,2612
2018-03-23T14:31:45.700Z,2352
2018-03-23T14:32:11.201Z,2144
2018-03-23T14:32:36.630Z,1992
2018-03-23T14:33:02.095Z,1912
2018-03-23T14:33:27.591Z,1932
2018-03-23T14:33:53.023Z,2016
2018-03-23T14:34:18.521Z,2116
2018-03-23T14:34:44.058Z,2148
2018-03-23T14:35:52.770Z,2060
2018-03-23T14:36:18.276Z,2036
2018-03-23T14:36:43.867Z,2184
2018-03-23T14:37:09.187Z,2388
2018-03-23T14:37:34.622Z,2560
2018-03-23T14:38:00.112Z,2668
2018-03-23T14:38:25.619Z,2648
2018-03-23T14:38:51.093Z,2576
2018-03-23T14:39:16.613Z,2604
2018-03-23T14:39:42.126Z,2608
2018-03-23T14:40:07.608Z,2484
2018-03-23T14:40:33.148Z,2256
2018-03-23T14:40:58.605Z,2056
2018-03-23T14:41:24.188Z,1932
2018-03-23T14:41:49.579Z,1860
2018-03-23T14:42:15.077Z,1824
2018-03-23T14:42:40.736Z,1812
2018-03-23T14:43:06.050Z,1828
2018-03-23T14:43:31.552Z,1888
2018-03-23T14:43:57.105Z,1920
2018-03-23T14:44:22.537Z,1912
2018-03-23T14:44:48.074Z,1884
2018-03-23T14:45:13.509Z,1836
2018-03-23T14:45:39.029Z,1812
2018-03-23T14:46:04.549Z,1848
2018-03-23T14:46:30.045Z,1872
2018-03-23T14:46:55.512Z,1852
2018-03-23T14:47:21.011Z,1840
2018-03-23T14:47:46.540Z,1780
2018-03-23T14:48:11.998Z,1724
2018-03-23T14:48:37.518Z,1724
2018-03-23T14:49:03.035Z,1840
2018-03-23T14:49:28.470Z,2072
2018-03-23T14:49:53.984Z,2316
2018-03-23T14:50:19.418Z,2416
2018-03-23T14:50:44.956Z,2296
2018-03-23T14:51:10.444Z,2160
2018-03-23T14:51:35.921Z,2164
2018-03-23T14:52:01.427Z,2324
2018-03-23T14:52:26.973Z,2568
2018-03-23T14:52:52.663Z,2740
2018-03-23T14:53:18.259Z,2848
2018-03-23T14:53:44.025Z,2948
2018-03-23T14:54:09.317Z,3084
2018-03-23T14:55:30.342Z,3388
2018-03-23T14:55:55.841Z,3412
2018-03-23T14:56:21.311Z,3404
2018-03-23T14:56:46.842Z,3428
2018-03-23T14:57:12.363Z,3420
2018-03-23T14:57:37.746Z,3368
2018-03-23T14:58:03.230Z,3288
2018-03-23T14:58:28.721Z,3256
2018-03-23T14:58:54.229Z,3284
2018-03-23T14:59:19.719Z,3248
2018-03-23T14:59:45.223Z,3156
2018-03-23T15:00:10.720Z,3112
2018-03-23T15:00:36.212Z,3068
2018-03-23T15:01:01.720Z,3040
2018-03-23T15:01:27.290Z,3056
2018-03-23T15:01:52.869Z,3100
2018-03-23T15:02:18.379Z,3156
2018-03-23T15:02:43.912Z,3292
2018-03-23T15:03:09.408Z,3432
2018-03-23T15:03:34.882Z,3516
2018-03-23T15:04:00.366Z,3480
2018-03-23T15:04:25.888Z,3404
2018-03-23T15:04:51.358Z,3284
2018-03-23T15:05:16.967Z,3152
2018-03-23T15:05:42.587Z,3040
2018-03-23T15:06:08.052Z,2928
2018-03-23T15:06:33.571Z,2848
2018-03-23T15:06:59.055Z,2804
2018-03-23T15:07:24.541Z,2760
2018-03-23T15:07:50.142Z,2708
2018-03-23T15:08:15.665Z,2704
2018-03-23T15:08:41.108Z,2792